Time;durP1;ratioP1;P1;durP2;ratioP2;P2;SDS_P1;SDS_P2;PMS_P1;PMS_P2;Temp;Humidity;BMP_temperature;BMP_pressure;BME280_temperature;BME280_humidity;BME280_pressure;Samples;Min_cycle;Max_cycle;Signal;HPM_P1;HPM_P2
2022/08/21 10:59:32;;;;;;;18.58;7.85;;;;;;;25.61;31.12;100169.34;5903176;22;20067;-70
2022/08/21 11:04:37;;;;;;;18.65;6.13;;;;;;;25.56;30.42;100164.56;5192738;27;20630;-73
2022/08/21 11:07:19;;;;;;;9.15;5.30;;;;;;;25.54;29.92;100167.44;5159678;27;20039;-72
2022/08/21 11:09:48;;;;;;;12.38;5.13;;;;;;;25.49;29.09;100172.66;5153647;27;20031;-73
2022/08/21 11:12:43;;;;;;;7.93;3.90;;;;;;;25.46;28.89;100174.94;5154040;27;20027;-73
2022/08/21 11:15:28;;;;;;;12.82;4.47;;;;;;;25.42;28.74;100177.22;5153613;27;20396;-74
2022/08/21 11:18:20;;;;;;;7.70;4.60;;;;;;;25.37;28.67;100172.38;5153661;27;20026;-73
2022/08/21 11:20:46;;;;;;;13.20;3.80;;;;;;;25.36;28.67;100175.31;5135238;27;20373;-72
2022/08/21 11:23:21;;;;;;;10.90;4.07;;;;;;;25.35;28.69;100182.56;5153808;27;20064;-73
2022/08/21 11:25:52;;;;;;;9.88;3.40;;;;;;;25.36;28.52;100178.84;5153319;27;20082;-71
2022/08/21 11:28:32;;;;;;;14.38;4.75;;;;;;;25.36;28.42;100183.44;5153343;27;20094;-72
2022/08/21 11:31:07;;;;;;;8.18;3.40;;;;;;;25.34;28.93;100178.19;5153340;27;20031;-70
2022/08/21 11:33:42;;;;;;;9.60;4.75;;;;;;;25.36;29.00;100180.72;5134024;27;20511;-73
2022/08/21 11:36:42;;;;;;;15.80;4.72;;;;;;;25.38;28.95;100170.50;5151031;27;20031;-73
2022/08/21 11:39:13;;;;;;;11.98;3.72;;;;;;;25.39;28.85;100169.47;5151036;27;20084;-71
2022/08/21 11:41:51;;;;;;;16.77;4.45;;;;;;;25.38;28.95;100159.66;5151208;27;20438;-71
2022/08/21 11:44:42;;;;;;;9.98;4.65;;;;;;;25.40;29.16;100163.00;5151117;27;20038;-70
2022/08/21 11:47:16;;;;;;;13.52;4.07;;;;;;;25.40;29.95;100158.44;5150963;27;20022;-71
2022/08/21 11:49:42;;;;;;;17.25;5.80;;;;;;;25.42;29.11;100161.81;5150753;27;20043;-71
2022/08/21 11:52:20;;;;;;;12.35;6.32;;;;;;;25.40;29.19;100152.16;5151048;27;20457;-70
2022/08/21 11:54:57;;;;;;;11.07;5.03;;;;;;;25.40;29.60;100153.00;5157578;27;20535;-72
2022/08/21 11:57:38;;;;;;;16.05;7.40;;;;;;;25.41;29.42;100153.84;5171485;27;20038;-71
2022/08/21 12:00:15;;;;;;;15.73;7.75;;;;;;;25.40;29.04;100154.88;5171522;27;20034;-70
2022/08/21 12:02:47;;;;;;;17.42;9.13;;;;;;;25.40;29.16;100142.19;5171279;27;20642;-72
2022/08/21 12:05:32;;;;;;;20.63;10.73;;;;;;;25.40;29.18;100149.47;5171693;27;20038;-70
2022/08/21 12:08:15;;;;;;;19.35;10.13;;;;;;;25.39;29.50;100147.78;5171637;27;20500;-70
2022/08/21 12:11:04;;;;;;;18.80;11.20;;;;;;;25.41;29.18;100137.59;5171651;27;20037;-71
2022/08/21 12:13:39;;;;;;;18.55;12.05;;;;;;;25.40;28.87;100144.91;5170349;27;20028;-72
2022/08/21 12:16:15;;;;;;;23.67;13.38;;;;;;;25.37;28.81;100147.16;5157448;27;20038;-68
2022/08/21 12:18:42;;;;;;;21.15;11.95;;;;;;;25.35;28.94;100149.25;5138612;27;20030;-69
2022/08/21 12:21:28;;;;;;;21.77;12.43;;;;;;;25.36;29.16;100159.06;5157697;27;20034;-71
2022/08/21 12:24:35;;;;;;;21.67;11.40;;;;;;;25.36;29.04;100156.34;5157276;27;20041;-70
2022/08/21 15:02:03;;;;;;;7.05;4.20;;;;;;;25.40;27.96;100104.25;5109838;28;20058;-71
2022/08/21 15:05:25;;;;;;;13.25;4.63;;;;;;;25.41;28.16;100100.53;5093053;28;20526;-73
2022/08/21 15:09:48;;;;;;;17.95;3.78;;;;;;;25.45;28.07;100095.53;5186730;27;20295;-74
2022/08/21 15:12:15;;;;;;;14.60;3.70;;;;;;;25.46;27.34;100091.78;5173534;27;20475;-69
2022/08/21 15:14:41;;;;;;;17.63;4.80;;;;;;;25.43;27.37;100086.78;5153930;27;20038;-73
2022/08/21 15:17:11;;;;;;;13.25;3.85;;;;;;;25.43;27.14;100103.03;5172725;27;20117;-71
2022/08/21 15:19:37;;;;;;;15.27;4.47;;;;;;;25.42;27.25;100104.06;5172260;27;20026;-71
2022/08/21 15:22:04;;;;;;;15.60;5.28;;;;;;;25.42;27.43;100101.38;5172504;27;20145;-72
2022/08/21 15:24:30;;;;;;;20.55;5.60;;;;;;;25.43;28.01;100106.59;5172149;27;20110;-72
2022/08/21 15:26:56;;;;;;;11.35;4.03;;;;;;;25.43;27.70;100097.63;5172651;27;20026;-71
2022/08/21 15:29:23;;;;;;;20.08;4.90;;;;;;;25.43;28.08;100093.06;5172087;27;20030;-72
2022/08/21 15:31:54;;;;;;;19.58;4.80;;;;;;;25.44;27.93;100093.88;5172274;27;20046;-72
2022/08/21 15:34:21;;;;;;;17.40;4.47;;;;;;;25.44;27.45;100096.56;5172013;27;20192;-73
2022/08/21 15:36:47;;;;;;;16.75;4.50;;;;;;;25.43;27.34;100094.91;5165028;27;20366;-72
2022/08/21 15:39:13;;;;;;;20.50;6.45;;;;;;;25.42;27.82;100095.94;5151335;27;20034;-73
2022/08/21 15:41:39;;;;;;;12.15;4.40;;;;;;;25.44;27.81;100093.88;5151726;27;20140;-69
2022/08/21 15:44:04;;;;;;;9.13;3.92;;;;;;;25.43;27.80;100087.63;5151037;27;20034;-71
2022/08/21 15:46:31;;;;;;;12.77;4.10;;;;;;;25.42;27.37;100080.53;5165698;27;20415;-73
2022/08/21 15:48:57;;;;;;;10.82;2.85;;;;;;;25.41;27.57;100084.28;5172329;27;20034;-72
2022/08/21 15:51:23;;;;;;;17.27;3.60;;;;;;;25.44;27.49;100086.56;5172331;27;20053;-72
2022/08/21 15:53:49;;;;;;;10.27;2.50;;;;;;;25.46;27.48;100078.25;5172081;27;20037;-71
2022/08/21 15:56:33;;;;;;;7.82;2.15;;;;;;;25.46;27.46;100080.97;5172206;27;20459;-71
2022/08/21 15:59:02;;;;;;;11.40;2.38;;;;;;;25.46;27.51;100088.25;5171682;27;20027;-71
2022/08/21 16:01:28;;;;;;;7.65;1.98;;;;;;;25.46;27.56;100085.53;5172864;27;20026;-70
2022/08/21 16:03:55;;;;;;;6.97;2.38;;;;;;;25.45;27.63;100076.56;5173618;27;20094;-73
2022/08/21 16:06:21;;;;;;;12.60;2.75;;;;;;;25.44;27.59;100078.44;5173539;27;20026;-72
2022/08/21 16:08:47;;;;;;;12.15;1.83;;;;;;;25.45;27.85;100087.41;5173462;27;20076;-73
2022/08/21 16:11:14;;;;;;;13.00;2.35;;;;;;;25.42;27.62;100079.69;5173373;27;20030;-70
2022/08/21 16:13:43;;;;;;;4.97;2.20;;;;;;;25.41;28.00;100078.00;5173688;27;20033;-71
2022/08/21 16:16:20;;;;;;;10.73;1.77;;;;;;;25.41;28.18;100076.16;5174250;27;20041;-72
2022/08/21 16:18:46;;;;;;;5.45;2.05;;;;;;;25.41;28.75;100070.75;5173689;27;20030;-72
2022/08/21 16:21:12;;;;;;;2.40;1.52;;;;;;;25.41;28.68;100075.28;5159655;27;20050;-73
2022/08/21 16:23:39;;;;;;;7.78;2.00;;;;;;;25.41;28.75;100065.34;5160209;27;20174;-70
2022/08/21 16:26:08;;;;;;;6.80;2.00;;;;;;;25.43;29.26;100076.78;5151727;27;20038;-72
2022/08/21 16:28:36;;;;;;;7.80;2.00;;;;;;;25.43;28.86;100073.25;5139131;27;20031;-72
2022/08/21 16:31:02;;;;;;;5.45;1.90;;;;;;;25.42;29.12;100075.13;5121061;27;20410;-70
2022/08/21 16:33:42;;;;;;;5.78;2.15;;;;;;;25.42;29.33;100074.28;5157728;27;20031;-71
2022/08/21 16:36:08;;;;;;;10.10;2.42;;;;;;;25.40;29.42;100073.63;5160609;27;20080;-71
2022/08/21 16:38:36;;;;;;;3.47;1.75;;;;;;;25.41;29.24;100076.16;5159519;27;20079;-75
2022/08/21 16:41:06;;;;;;;6.20;2.05;;;;;;;25.40;29.10;100069.03;5156879;27;20130;-68
2022/08/21 16:43:32;;;;;;;6.75;2.80;;;;;;;25.44;29.07;100074.91;5156591;27;20117;-69
2022/08/21 16:46:00;;;;;;;9.77;2.45;;;;;;;25.42;29.36;100068.84;5157199;27;20540;-70
2022/08/21 16:48:25;;;;;;;5.20;2.65;;;;;;;25.44;29.19;100072.19;5138029;27;20039;-70
2022/08/21 16:50:51;;;;;;;5.30;2.20;;;;;;;25.44;29.33;100066.78;5157059;27;20453;-70
2022/08/21 20:29:35;;;;;;;11.35;4.97;;;;;;;24.16;31.43;100103.22;5136246;27;20065;-79
2022/08/21 20:34:26;;;;;;;11.05;3.42;;;;;;;24.20;31.20;100105.31;5189107;27;20634;-73
2022/08/21 20:36:52;;;;;;;7.75;3.17;;;;;;;24.22;31.17;100110.50;5172242;27;20043;-73
2022/08/21 20:39:18;;;;;;;5.78;3.80;;;;;;;24.23;31.54;100107.63;5172297;27;20026;-72
2022/08/21 20:41:44;;;;;;;11.25;3.55;;;;;;;24.25;31.39;100110.13;5172472;27;20022;-69
2022/08/21 20:44:13;;;;;;;5.00;3.38;;;;;;;24.28;31.57;100114.28;5172085;27;20030;-69
2022/08/21 20:46:38;;;;;;;9.80;3.50;;;;;;;24.26;31.73;100109.09;5170856;27;20026;-71
2022/08/21 20:49:07;;;;;;;9.15;3.88;;;;;;;24.26;32.13;100108.28;5172632;27;20029;-69
2022/08/21 20:51:39;;;;;;;12.38;3.28;;;;;;;24.26;32.09;100110.97;5172309;27;20049;-71
2022/08/21 20:54:34;;;;;;;4.60;2.88;;;;;;;24.25;32.02;100112.00;5172522;27;20033;-71
2022/08/21 20:57:02;;;;;;;14.52;3.95;;;;;;;24.19;32.03;100114.47;5170913;27;20091;-72
2022/08/21 20:59:34;;;;;;;10.40;3.20;;;;;;;24.18;31.99;100109.25;5171755;27;20066;-73
2022/08/21 21:02:19;;;;;;;7.13;2.90;;;;;;;24.18;32.23;100120.06;5171740;27;20125;-73
2022/08/21 21:04:50;;;;;;;7.20;2.75;;;;;;;24.14;31.92;100106.09;5171731;27;20053;-73
2022/08/21 21:07:23;;;;;;;5.00;2.95;;;;;;;24.12;32.03;100104.63;5168054;27;20069;-71
2022/08/21 21:09:51;;;;;;;4.43;2.72;;;;;;;24.11;32.41;100105.66;5179072;27;20057;-72
2022/08/21 21:12:36;;;;;;;7.05;2.63;;;;;;;24.10;32.41;100103.97;5171299;27;20042;-71
2022/08/21 21:15:13;;;;;;;8.50;2.78;;;;;;;24.08;32.83;100106.88;5172267;27;20034;-73
2022/08/21 21:17:51;;;;;;;6.18;2.97;;;;;;;24.07;32.50;100099.81;5173272;27;20026;-70
2022/08/21 21:20:48;;;;;;;3.35;2.15;;;;;;;24.06;32.58;100104.38;5172375;27;20095;-72
2022/08/21 21:23:31;;;;;;;3.50;2.10;;;;;;;24.07;32.62;100105.22;5152741;27;20035;-70
2022/08/21 21:26:19;;;;;;;5.75;3.05;;;;;;;24.05;32.93;100104.56;5172605;27;20053;-73
2022/08/21 21:28:55;;;;;;;7.22;2.90;;;;;;;24.05;33.21;100107.28;5173579;27;20113;-72
2022/08/21 21:31:25;;;;;;;7.25;3.00;;;;;;;24.06;32.92;100107.06;5168480;27;20030;-70
2022/08/21 21:33:50;;;;;;;4.82;2.78;;;;;;;24.07;33.25;100107.91;5172065;27;20043;-71
2022/08/21 21:36:31;;;;;;;6.80;2.70;;;;;;;24.06;32.86;100107.06;5172742;27;20037;-70
2022/08/21 21:39:08;;;;;;;;;;;;;;;23.97;32.81;100105.53;5153407;27;20507;-69
2022/08/21 21:41:54;;;;;;;5.60;2.60;;;;;;;23.97;33.40;100110.94;5172062;27;19911;-70
2022/08/21 21:44:43;;;;;;;9.07;3.08;;;;;;;24.01;32.96;100114.09;5166923;27;20114;-71
2022/08/21 21:47:14;;;;;;;7.03;2.55;;;;;;;24.03;33.22;100109.34;5158833;27;20069;-72
2022/08/21 21:49:40;;;;;;;8.75;2.92;;;;;;;24.04;33.32;100106.41;5158381;27;20396;-70
2022/08/21 21:52:28;;;;;;;6.38;2.72;;;;;;;24.05;33.24;100107.28;5157716;27;20041;-70
2022/08/21 21:55:25;;;;;;;6.15;2.80;;;;;;;24.05;33.25;100108.09;5157320;27;20477;-71
2022/08/21 21:58:19;;;;;;;7.15;3.03;;;;;;;24.03;33.57;100109.34;5157423;27;20484;-69
2022/08/21 22:00:52;;;;;;;4.95;2.50;;;;;;;23.98;33.44;100100.97;5156109;27;20026;-70
2022/08/21 22:03:26;;;;;;;11.38;2.75;;;;;;;23.99;33.26;100108.03;5157079;27;20030;-68
2022/08/21 22:05:59;;;;;;;6.57;2.60;;;;;;;23.99;33.37;100102.63;5156070;27;20030;-69
2022/08/21 22:08:46;;;;;;;7.72;3.45;;;;;;;23.98;33.09;100107.22;5156380;27;20038;-71
2022/08/21 22:11:42;;;;;;;6.28;2.80;;;;;;;23.97;33.24;100105.53;5151590;27;20031;-71
2022/08/21 22:14:14;;;;;;;7.38;2.95;;;;;;;23.95;33.76;100107.56;5136578;27;20495;-71
2022/08/21 22:16:43;;;;;;;5.82;2.78;;;;;;;23.95;33.77;100110.28;5157612;27;20087;-71
2022/08/21 22:19:28;;;;;;;8.10;3.58;;;;;;;23.92;32.91;100103.41;5160531;27;20042;-70
2022/08/21 22:22:08;;;;;;;6.85;3.33;;;;;;;23.94;33.42;100105.91;5151183;27;20029;-72
2022/08/21 22:24:39;;;;;;;7.28;3.75;;;;;;;23.93;33.38;100107.78;5136744;27;20396;-70
2022/08/21 22:27:29;;;;;;;8.40;2.85;;;;;;;23.93;33.19;100099.66;5156014;27;20038;-70
2022/08/21 22:29:58;;;;;;;6.88;3.15;;;;;;;23.91;33.70;100103.56;5145905;27;20508;-68
2022/08/21 22:32:37;;;;;;;5.70;3.25;;;;;;;23.88;33.65;100099.41;5155893;27;20050;-70
2022/08/21 22:35:11;;;;;;;7.93;2.80;;;;;;;23.87;33.63;100105.03;5156080;27;20609;-69
2022/08/21 22:37:40;;;;;;;7.70;4.00;;;;;;;23.84;33.39;100103.53;5156838;27;20030;-69
2022/08/21 22:40:08;;;;;;;6.75;2.97;;;;;;;23.85;33.71;100099.78;5158394;27;20030;-70
2022/08/21 22:42:34;;;;;;;12.13;3.20;;;;;;;23.86;33.82;100106.88;5156677;27;20473;-69
2022/08/21 22:45:04;;;;;;;5.07;2.97;;;;;;;23.85;33.63;100107.91;5156125;27;20125;-72
2022/08/21 22:47:43;;;;;;;7.10;3.58;;;;;;;23.84;33.58;100105.41;5155962;27;20386;-72
2022/08/21 22:50:20;;;;;;;7.38;3.90;;;;;;;23.84;34.01;100110.81;5155861;27;20037;-71
2022/08/21 22:52:57;;;;;;;9.77;3.83;;;;;;;23.84;34.21;100108.09;5156105;27;20405;-70
2022/08/21 22:55:52;;;;;;;11.82;3.88;;;;;;;23.82;34.26;100108.31;5155539;27;20042;-70
2022/08/21 22:58:22;;;;;;;8.50;3.58;;;;;;;23.82;34.40;100111.00;5147100;27;20038;-71
2022/08/21 23:01:06;;;;;;;7.38;3.85;;;;;;;23.82;34.55;100112.88;5154833;27;20034;-70
2022/08/21 23:03:59;;;;;;;6.63;3.55;;;;;;;23.82;34.59;100115.56;5156356;27;20037;-70
2022/08/21 23:06:31;;;;;;;14.30;4.05;;;;;;;23.83;34.69;100109.13;5153347;27;20031;-71
2022/08/21 23:08:59;;;;;;;8.30;3.85;;;;;;;23.83;34.62;100103.72;5156053;27;20030;-71
2022/08/21 23:11:41;;;;;;;6.43;3.95;;;;;;;23.83;34.49;100103.72;5155406;27;20606;-71
2022/08/21 23:14:07;;;;;;;6.05;3.80;;;;;;;23.82;34.33;100107.47;5154064;27;20037;-71
2022/08/21 23:16:45;;;;;;;6.68;3.40;;;;;;;23.82;34.63;100112.88;5156940;27;20030;-71
2022/08/21 23:19:19;;;;;;;9.15;4.10;;;;;;;23.84;34.37;100121.63;5163155;27;20026;-70
2022/08/21 23:22:14;;;;;;;7.43;3.35;;;;;;;23.83;34.31;100111.84;5156819;27;20026;-70
2022/08/21 23:24:57;;;;;;;6.85;3.50;;;;;;;23.80;34.34;100114.91;5155029;27;20541;-69
2022/08/21 23:27:41;;;;;;;12.55;3.95;;;;;;;23.78;34.29;100117.81;5155915;27;20118;-71
2022/08/21 23:30:35;;;;;;;10.57;4.35;;;;;;;23.75;34.58;100120.91;5154918;27;20106;-69
2022/08/21 23:33:22;;;;;;;12.23;3.90;;;;;;;23.70;34.52;100118.78;5102182;27;20062;-69
2022/08/21 23:39:37;;;;;;;9.25;3.55;;;;;;;23.67;34.82;100116.47;5154625;27;20033;-70
2022/08/21 23:42:18;;;;;;;9.73;3.95;;;;;;;23.65;35.08;100126.63;5149160;27;20465;-70
2022/08/21 23:45:11;;;;;;;8.55;3.63;;;;;;;23.63;34.97;100117.88;5154887;27;20402;-71
2022/08/21 23:47:50;;;;;;;9.45;3.85;;;;;;;23.61;34.86;100118.09;5144269;27;20035;-71
2022/08/21 23:50:28;;;;;;;6.95;3.40;;;;;;;23.62;34.82;100118.91;5156110;27;20034;-71
2022/08/21 23:53:24;;;;;;;9.35;3.58;;;;;;;23.60;35.09;100124.50;5156893;27;20037;-70
2022/08/21 23:56:20;;;;;;;12.20;4.05;;;;;;;23.59;34.62;100117.44;5148544;27;20118;-70
2022/08/21 23:59:02;;;;;;;7.85;3.63;;;;;;;23.57;34.76;100127.59;5156823;27;20027;-70
